createdAt,value
2018-08-28T00:04:10.636Z,4.00
2018-08-28T00:09:14.512Z,7.50
2018-08-28T00:14:18.473Z,4.43
2018-08-28T00:19:37.851Z,4.27
2018-08-28T00:24:41.712Z,5.07
2018-08-28T00:29:45.615Z,6.90
2018-08-28T00:34:49.547Z,5.57
2018-08-28T00:39:53.631Z,6.00
2018-08-28T00:44:57.523Z,5.27
2018-08-28T00:50:01.469Z,6.10
2018-08-28T00:55:05.544Z,4.63
2018-08-28T01:00:09.369Z,5.60
2018-08-28T01:05:13.238Z,7.10
2018-08-28T01:10:17.135Z,5.63
2018-08-28T01:15:20.980Z,5.73
2018-08-28T01:20:24.798Z,6.23
2018-08-28T01:25:28.724Z,4.33
2018-08-28T01:30:34.597Z,4.93
2018-08-28T01:35:38.392Z,6.77
2018-08-28T01:40:42.145Z,5.77
2018-08-28T01:45:45.979Z,5.33
2018-08-28T01:50:49.970Z,7.10
2018-08-28T01:55:53.722Z,7.50
2018-08-28T02:00:57.476Z,5.43
2018-08-28T02:06:01.321Z,5.53
2018-08-28T02:11:05.127Z,9.53
2018-08-28T02:16:08.931Z,6.30
2018-08-28T02:21:12.711Z,5.60
2018-08-28T02:26:16.747Z,6.20
2018-08-28T02:31:20.878Z,6.10
2018-08-28T02:36:24.974Z,8.50
2018-08-28T02:41:28.869Z,6.83
2018-08-28T02:46:32.698Z,4.57
2018-08-28T02:51:37.104Z,6.43
2018-08-28T02:56:40.915Z,6.67
2018-08-28T03:01:44.844Z,5.30
2018-08-28T03:06:48.632Z,5.30
2018-08-28T03:11:52.550Z,5.47
2018-08-28T03:16:56.267Z,4.70
2018-08-28T03:22:00.179Z,4.97
2018-08-28T03:27:04.168Z,4.80
2018-08-28T03:32:07.869Z,6.93
2018-08-28T03:37:11.684Z,5.73
2018-08-28T03:42:15.351Z,5.43
2018-08-28T03:47:19.015Z,4.70
2018-08-28T03:52:22.698Z,5.43
2018-08-28T03:57:26.453Z,4.20
2018-08-28T04:02:33.293Z,6.70
2018-08-28T04:07:38.014Z,5.10
2018-08-28T04:12:41.589Z,6.77
2018-08-28T04:17:49.387Z,7.07
2018-08-28T04:22:53.074Z,5.07
2018-08-28T04:27:56.751Z,5.93
2018-08-28T04:33:00.339Z,6.60
2018-08-28T04:38:04.046Z,15.33
2018-08-28T04:43:07.890Z,9.20
2018-08-28T04:48:11.691Z,5.73
2018-08-28T04:53:15.986Z,3.87
2018-08-28T04:58:19.930Z,5.80
2018-08-28T05:03:24.166Z,7.83
2018-08-28T05:08:31.143Z,4.90
2018-08-28T05:13:34.963Z,6.73
2018-08-28T05:18:39.009Z,6.10
2018-08-28T05:23:42.882Z,7.57
2018-08-28T05:28:46.676Z,10.03
2018-08-28T05:33:50.813Z,7.63
2018-08-28T05:38:54.626Z,6.37
2018-08-28T05:43:58.475Z,9.73
2018-08-28T05:49:02.484Z,4.07
2018-08-28T05:54:06.241Z,5.97
2018-08-28T05:59:12.227Z,6.50
2018-08-28T06:04:15.962Z,6.13
2018-08-28T06:09:25.129Z,4.80
2018-08-28T06:14:28.999Z,4.40
2018-08-28T06:19:33.919Z,7.67
2018-08-28T06:24:37.725Z,10.33
2018-08-28T06:29:41.484Z,5.80
2018-08-28T06:34:45.255Z,12.83
2018-08-28T06:39:49.151Z,5.73
2018-08-28T06:44:52.847Z,4.37
2018-08-28T06:49:56.887Z,9.40
2018-08-28T06:55:00.698Z,4.70
2018-08-28T07:00:04.567Z,5.27
2018-08-28T07:05:08.421Z,6.43
2018-08-28T07:10:12.253Z,7.77
2018-08-28T07:15:16.047Z,6.37
2018-08-28T07:20:19.912Z,5.77
2018-08-28T07:25:23.791Z,6.23
2018-08-28T07:30:27.749Z,7.13
2018-08-28T07:35:31.542Z,5.70
2018-08-28T07:40:35.402Z,5.97
2018-08-28T07:45:39.324Z,5.90
2018-08-28T07:50:43.266Z,6.47
2018-08-28T07:55:47.523Z,6.10
2018-08-28T08:00:51.722Z,5.30
2018-08-28T08:05:56.661Z,7.93
2018-08-28T08:11:00.556Z,5.90
2018-08-28T08:16:04.393Z,4.53
2018-08-28T08:21:08.270Z,4.90
2018-08-28T08:26:12.157Z,7.07
2018-08-28T08:31:16.055Z,5.00
2018-08-28T08:36:19.893Z,7.43
2018-08-28T08:41:23.800Z,4.40
2018-08-28T08:46:27.657Z,5.10
2018-08-28T08:51:31.475Z,7.93
2018-08-28T08:56:35.291Z,7.20
2018-08-28T09:01:39.203Z,11.33
2018-08-28T09:06:42.970Z,7.87
2018-08-28T09:11:46.786Z,5.40
2018-08-28T09:16:50.595Z,6.57
2018-08-28T09:21:54.388Z,6.43
2018-08-28T09:26:58.447Z,6.47
2018-08-28T09:32:02.395Z,7.40
2018-08-28T09:37:06.443Z,5.70
2018-08-28T09:42:10.303Z,8.37
2018-08-28T09:47:14.066Z,9.60
2018-08-28T09:52:17.867Z,10.63
2018-08-28T09:57:21.714Z,6.73
2018-08-28T10:02:25.546Z,6.33
2018-08-28T10:07:29.304Z,5.33
2018-08-28T10:12:33.152Z,7.03
2018-08-28T10:17:36.973Z,6.07
2018-08-28T10:22:41.154Z,6.57
2018-08-28T10:27:44.983Z,7.50
2018-08-28T10:32:48.761Z,5.90
2018-08-28T10:43:21.387Z,5.53
2018-08-28T10:48:30.640Z,6.30
2018-08-28T10:53:34.472Z,6.00
2018-08-28T10:58:38.316Z,8.17
2018-08-28T11:03:42.253Z,7.67
2018-08-28T11:08:46.106Z,4.70
2018-08-28T11:13:49.845Z,5.57
2018-08-28T11:18:53.577Z,6.33
2018-08-28T11:23:57.880Z,5.43
2018-08-28T11:29:01.688Z,6.10
2018-08-28T11:34:05.648Z,5.90
2018-08-28T11:39:16.645Z,7.20
2018-08-28T11:44:20.842Z,5.60
2018-08-28T11:49:24.591Z,6.10
2018-08-28T11:54:28.474Z,4.73
2018-08-28T11:59:37.964Z,4.83
2018-08-28T12:04:41.390Z,5.43
2018-08-28T12:09:45.239Z,5.50
2018-08-28T12:14:49.111Z,6.70
2018-08-28T12:19:53.091Z,7.57
2018-08-28T12:24:56.996Z,4.47
2018-08-28T12:30:00.861Z,3.77
2018-08-28T12:35:04.918Z,6.60
2018-08-28T12:40:08.798Z,3.70
2018-08-28T12:45:12.651Z,5.30
2018-08-28T12:50:16.475Z,5.50
2018-08-28T12:55:20.386Z,5.20
2018-08-28T13:00:24.196Z,8.50
2018-08-28T13:05:28.302Z,3.63
2018-08-28T13:10:32.271Z,3.93
2018-08-28T13:15:36.202Z,6.10
2018-08-28T13:20:40.056Z,6.10
2018-08-28T13:25:43.948Z,4.37
2018-08-28T13:30:47.855Z,6.03
2018-08-28T13:35:51.845Z,4.53
2018-08-28T13:40:55.807Z,5.37
2018-08-28T13:45:59.720Z,5.30
2018-08-28T13:51:03.643Z,5.50
2018-08-28T13:56:07.578Z,5.07
2018-08-28T14:01:11.419Z,5.90
2018-08-28T14:06:15.664Z,5.03
2018-08-28T14:11:19.688Z,6.50
2018-08-28T14:16:23.880Z,10.33
2018-08-28T14:21:27.924Z,7.60
2018-08-28T14:26:32.129Z,10.37
2018-08-28T14:31:36.187Z,9.40
2018-08-28T14:36:42.253Z,10.37
2018-08-28T14:41:47.008Z,10.53
2018-08-28T14:46:51.639Z,11.90
2018-08-28T14:51:56.076Z,11.73
2018-08-28T14:57:00.307Z,12.20
2018-08-28T15:02:04.630Z,13.80
2018-08-28T15:07:09.053Z,11.87
2018-08-28T15:12:12.707Z,9.97
2018-08-28T15:17:16.636Z,12.00
2018-08-28T15:22:21.004Z,16.67
2018-08-28T15:27:25.033Z,18.30
2018-08-28T15:32:28.888Z,18.10
2018-08-28T15:37:33.024Z,24.83
2018-08-28T15:42:36.942Z,20.93
2018-08-28T15:47:41.466Z,26.60
2018-08-28T15:52:45.267Z,25.47
2018-08-28T15:57:49.320Z,23.40
2018-08-28T16:02:53.235Z,23.30
2018-08-28T16:07:57.138Z,22.00
2018-08-28T16:13:01.026Z,22.83
2018-08-28T16:18:05.014Z,30.07
2018-08-28T16:23:13.552Z,26.97
2018-08-28T16:28:17.657Z,26.20
2018-08-28T16:33:21.484Z,25.30
2018-08-28T16:38:25.199Z,31.53
2018-08-28T16:43:28.977Z,25.10
2018-08-28T16:48:33.263Z,17.47
2018-08-28T16:53:37.255Z,20.53
2018-08-28T16:58:41.066Z,18.90
2018-08-28T17:03:46.042Z,16.30
2018-08-28T17:08:54.376Z,18.37
2018-08-28T17:13:58.372Z,18.53
2018-08-28T17:19:02.398Z,14.60
2018-08-28T17:24:06.182Z,18.03
2018-08-28T17:29:12.507Z,31.03
2018-08-28T17:34:16.380Z,19.80
2018-08-28T17:39:20.456Z,20.60
2018-08-28T17:44:24.428Z,24.50
2018-08-28T17:49:28.532Z,21.30
2018-08-28T17:54:32.583Z,25.27
2018-08-28T17:59:36.437Z,20.27
2018-08-28T18:04:40.319Z,22.40
2018-08-28T18:09:44.610Z,21.73
2018-08-28T18:14:48.548Z,20.33
2018-08-28T18:19:52.419Z,26.33
2018-08-28T18:24:56.270Z,22.10
2018-08-28T18:30:00.238Z,22.13
2018-08-28T18:35:04.376Z,19.23
2018-08-28T18:40:08.138Z,21.13
2018-08-28T18:45:12.034Z,21.40
2018-08-28T18:50:15.907Z,20.00
2018-08-28T18:55:19.747Z,21.33
2018-08-28T19:00:23.693Z,23.50
2018-08-28T19:05:27.778Z,20.50
2018-08-28T19:10:31.881Z,18.83
2018-08-28T19:15:35.779Z,21.77
2018-08-28T19:20:39.749Z,20.20
2018-08-28T19:25:44.445Z,17.73
2018-08-28T19:30:48.352Z,17.70
2018-08-28T19:35:52.118Z,18.53
2018-08-28T19:40:55.938Z,19.73
2018-08-28T19:45:59.873Z,14.03
2018-08-28T19:51:04.616Z,15.20
2018-08-28T19:56:08.642Z,17.53
2018-08-28T20:01:12.526Z,20.27
2018-08-28T20:06:16.592Z,18.53
2018-08-28T20:11:20.452Z,21.50
2018-08-28T20:16:24.371Z,20.10
2018-08-28T20:21:28.370Z,21.57
2018-08-28T20:26:40.385Z,25.33
2018-08-28T20:31:44.372Z,16.77
2018-08-28T20:36:48.338Z,16.57
2018-08-28T20:41:52.194Z,17.17
2018-08-28T20:46:56.063Z,21.00
2018-08-28T20:52:00.033Z,16.50
2018-08-28T20:57:04.445Z,20.60
2018-08-28T21:02:08.463Z,18.10
2018-08-28T21:07:12.513Z,17.40
2018-08-28T21:12:16.535Z,22.20
2018-08-28T21:17:20.509Z,19.47
2018-08-28T21:22:24.384Z,19.07
2018-08-28T21:27:28.118Z,21.07
2018-08-28T21:32:32.050Z,18.60
2018-08-28T21:37:35.987Z,21.20
2018-08-28T21:42:39.794Z,16.90
2018-08-28T21:47:43.655Z,20.30
2018-08-28T21:52:47.533Z,18.23
2018-08-28T21:57:51.639Z,21.43
2018-08-28T22:02:55.431Z,22.93
2018-08-28T22:08:21.132Z,17.67
2018-08-28T22:13:25.447Z,18.70
2018-08-28T22:18:29.446Z,18.90
2018-08-28T22:23:33.561Z,19.00
2018-08-28T22:28:37.617Z,19.63
2018-08-28T22:33:41.593Z,18.50
2018-08-28T22:38:45.397Z,21.03
2018-08-28T22:43:49.782Z,18.00
2018-08-28T22:48:53.954Z,18.33
2018-08-28T22:53:57.838Z,17.87
2018-08-28T22:59:01.984Z,23.03
2018-08-28T23:04:05.902Z,19.27
2018-08-28T23:09:11.974Z,17.63
2018-08-28T23:14:15.916Z,18.23
2018-08-28T23:19:19.941Z,18.30
2018-08-28T23:24:23.780Z,17.83
2018-08-28T23:29:34.038Z,21.13
2018-08-28T23:34:37.892Z,18.60
2018-08-28T23:39:41.674Z,19.37
2018-08-28T23:44:45.419Z,17.73
2018-08-28T23:49:49.102Z,20.40
2018-08-28T23:54:52.874Z,18.37
2018-08-28T23:59:56.586Z,16.90
